sensor_id;sensor_type;location;lat;lon;timestamp;P1;durP1;ratioP1;P2;durP2;ratioP2
33268;SDS011;19640;50.944;5.260;2022-07-29T00:01:20;4.00;;;1.73;;
33268;SDS011;19640;50.944;5.260;2022-07-29T00:03:45;5.30;;;2.17;;
33268;SDS011;19640;50.944;5.260;2022-07-29T00:06:12;3.20;;;1.95;;
33268;SDS011;19640;50.944;5.260;2022-07-29T00:08:37;4.30;;;1.70;;
33268;SDS011;19640;50.944;5.260;2022-07-29T00:11:03;4.97;;;2.00;;
33268;SDS011;19640;50.944;5.260;2022-07-29T00:13:29;6.03;;;2.20;;
33268;SDS011;19640;50.944;5.260;2022-07-29T00:15:55;5.13;;;1.80;;
33268;SDS011;19640;50.944;5.260;2022-07-29T00:18:20;5.68;;;2.55;;
33268;SDS011;19640;50.944;5.260;2022-07-29T00:20:46;4.47;;;2.30;;
33268;SDS011;19640;50.944;5.260;2022-07-29T00:23:11;5.07;;;2.13;;
33268;SDS011;19640;50.944;5.260;2022-07-29T00:25:37;5.88;;;2.47;;
33268;SDS011;19640;50.944;5.260;2022-07-29T00:28:03;9.60;;;2.38;;
33268;SDS011;19640;50.944;5.260;2022-07-29T00:30:28;4.93;;;2.20;;
33268;SDS011;19640;50.944;5.260;2022-07-29T00:32:54;5.18;;;2.35;;
33268;SDS011;19640;50.944;5.260;2022-07-29T00:35:20;3.97;;;2.00;;
33268;SDS011;19640;50.944;5.260;2022-07-29T00:38:04;5.80;;;2.08;;
33268;SDS011;19640;50.944;5.260;2022-07-29T00:40:29;4.15;;;1.95;;
33268;SDS011;19640;50.944;5.260;2022-07-29T00:42:55;5.95;;;1.70;;
33268;SDS011;19640;50.944;5.260;2022-07-29T00:45:21;5.10;;;1.98;;
33268;SDS011;19640;50.944;5.260;2022-07-29T00:47:49;3.63;;;1.60;;
33268;SDS011;19640;50.944;5.260;2022-07-29T00:50:15;3.97;;;1.90;;
33268;SDS011;19640;50.944;5.260;2022-07-29T00:52:42;5.47;;;2.00;;
33268;SDS011;19640;50.944;5.260;2022-07-29T00:55:09;3.45;;;1.70;;
33268;SDS011;19640;50.944;5.260;2022-07-29T00:57:36;6.93;;;2.20;;
33268;SDS011;19640;50.944;5.260;2022-07-29T01:00:07;3.25;;;1.80;;
33268;SDS011;19640;50.944;5.260;2022-07-29T01:02:34;3.08;;;1.73;;
33268;SDS011;19640;50.944;5.260;2022-07-29T01:05:01;2.25;;;1.80;;
33268;SDS011;19640;50.944;5.260;2022-07-29T01:07:27;2.97;;;1.92;;
33268;SDS011;19640;50.944;5.260;2022-07-29T01:09:55;3.80;;;2.22;;
33268;SDS011;19640;50.944;5.260;2022-07-29T01:12:23;6.15;;;2.28;;
33268;SDS011;19640;50.944;5.260;2022-07-29T01:14:53;4.63;;;2.22;;
33268;SDS011;19640;50.944;5.260;2022-07-29T01:17:21;4.40;;;1.98;;
33268;SDS011;19640;50.944;5.260;2022-07-29T01:31:19;4.50;;;2.33;;
33268;SDS011;19640;50.944;5.260;2022-07-29T01:33:50;3.85;;;2.50;;
33268;SDS011;19640;50.944;5.260;2022-07-29T01:36:23;5.65;;;2.40;;
33268;SDS011;19640;50.944;5.260;2022-07-29T01:39:11;4.20;;;2.72;;
33268;SDS011;19640;50.944;5.260;2022-07-29T01:44:20;4.93;;;2.53;;
33268;SDS011;19640;50.944;5.260;2022-07-29T01:46:54;3.03;;;2.38;;
33268;SDS011;19640;50.944;5.260;2022-07-29T01:49:27;4.13;;;2.30;;
33268;SDS011;19640;50.944;5.260;2022-07-29T01:52:00;4.75;;;2.58;;
33268;SDS011;19640;50.944;5.260;2022-07-29T01:54:34;6.70;;;3.08;;
33268;SDS011;19640;50.944;5.260;2022-07-29T01:57:11;3.55;;;2.60;;
33268;SDS011;19640;50.944;5.260;2022-07-29T02:02:08;4.75;;;2.80;;
33268;SDS011;19640;50.944;5.260;2022-07-29T02:04:36;2.90;;;2.53;;
33268;SDS011;19640;50.944;5.260;2022-07-29T02:07:05;7.47;;;2.85;;
33268;SDS011;19640;50.944;5.260;2022-07-29T02:09:33;6.18;;;2.78;;
33268;SDS011;19640;50.944;5.260;2022-07-29T02:12:02;4.05;;;2.53;;
33268;SDS011;19640;50.944;5.260;2022-07-29T02:14:40;5.97;;;2.50;;
33268;SDS011;19640;50.944;5.260;2022-07-29T02:17:08;3.95;;;2.63;;
33268;SDS011;19640;50.944;5.260;2022-07-29T02:19:37;4.75;;;3.35;;
33268;SDS011;19640;50.944;5.260;2022-07-29T02:22:04;4.35;;;3.03;;
33268;SDS011;19640;50.944;5.260;2022-07-29T02:24:32;3.47;;;2.35;;
33268;SDS011;19640;50.944;5.260;2022-07-29T02:27:00;5.47;;;2.80;;
33268;SDS011;19640;50.944;5.260;2022-07-29T02:29:28;3.83;;;2.83;;
33268;SDS011;19640;50.944;5.260;2022-07-29T02:31:54;4.53;;;2.40;;
33268;SDS011;19640;50.944;5.260;2022-07-29T02:34:25;3.08;;;2.45;;
33268;SDS011;19640;50.944;5.260;2022-07-29T02:36:53;4.85;;;2.85;;
33268;SDS011;19640;50.944;5.260;2022-07-29T02:39:20;9.32;;;2.67;;
33268;SDS011;19640;50.944;5.260;2022-07-29T02:41:55;3.47;;;2.85;;
33268;SDS011;19640;50.944;5.260;2022-07-29T02:44:26;3.08;;;2.60;;
33268;SDS011;19640;50.944;5.260;2022-07-29T02:50:02;4.53;;;2.97;;
33268;SDS011;19640;50.944;5.260;2022-07-29T02:53:17;3.00;;;2.70;;
33268;SDS011;19640;50.944;5.260;2022-07-29T03:00:45;5.30;;;2.70;;
33268;SDS011;19640;50.944;5.260;2022-07-29T03:03:15;6.30;;;2.63;;
33268;SDS011;19640;50.944;5.260;2022-07-29T03:05:43;5.60;;;2.67;;
33268;SDS011;19640;50.944;5.260;2022-07-29T03:08:09;10.50;;;3.38;;
33268;SDS011;19640;50.944;5.260;2022-07-29T03:10:36;4.97;;;2.95;;
33268;SDS011;19640;50.944;5.260;2022-07-29T03:13:04;4.15;;;2.25;;
33268;SDS011;19640;50.944;5.260;2022-07-29T03:15:30;2.85;;;2.45;;
33268;SDS011;19640;50.944;5.260;2022-07-29T03:17:57;4.05;;;2.50;;
33268;SDS011;19640;50.944;5.260;2022-07-29T03:20:24;3.88;;;2.70;;
33268;SDS011;19640;50.944;5.260;2022-07-29T03:22:51;4.68;;;2.63;;
33268;SDS011;19640;50.944;5.260;2022-07-29T03:25:17;3.03;;;2.78;;
33268;SDS011;19640;50.944;5.260;2022-07-29T03:27:44;3.25;;;2.47;;
33268;SDS011;19640;50.944;5.260;2022-07-29T03:30:11;7.95;;;3.20;;
33268;SDS011;19640;50.944;5.260;2022-07-29T03:32:37;3.63;;;2.95;;
33268;SDS011;19640;50.944;5.260;2022-07-29T03:35:04;3.03;;;2.75;;
33268;SDS011;19640;50.944;5.260;2022-07-29T03:37:30;3.50;;;2.67;;
33268;SDS011;19640;50.944;5.260;2022-07-29T03:39:58;7.07;;;3.28;;
33268;SDS011;19640;50.944;5.260;2022-07-29T03:42:27;5.03;;;3.05;;
33268;SDS011;19640;50.944;5.260;2022-07-29T03:44:55;6.03;;;3.25;;
33268;SDS011;19640;50.944;5.260;2022-07-29T03:47:24;4.75;;;3.10;;
33268;SDS011;19640;50.944;5.260;2022-07-29T03:49:53;7.32;;;3.10;;
33268;SDS011;19640;50.944;5.260;2022-07-29T03:52:21;5.32;;;3.40;;
33268;SDS011;19640;50.944;5.260;2022-07-29T03:54:47;3.80;;;3.25;;
33268;SDS011;19640;50.944;5.260;2022-07-29T03:57:14;4.47;;;3.00;;
33268;SDS011;19640;50.944;5.260;2022-07-29T03:59:41;5.03;;;3.83;;
33268;SDS011;19640;50.944;5.260;2022-07-29T04:02:08;4.22;;;3.10;;
33268;SDS011;19640;50.944;5.260;2022-07-29T04:04:36;4.30;;;3.00;;
33268;SDS011;19640;50.944;5.260;2022-07-29T04:07:02;3.90;;;3.10;;
33268;SDS011;19640;50.944;5.260;2022-07-29T04:09:28;5.10;;;3.00;;
33268;SDS011;19640;50.944;5.260;2022-07-29T04:11:54;5.95;;;3.35;;
33268;SDS011;19640;50.944;5.260;2022-07-29T04:14:20;3.97;;;3.28;;
33268;SDS011;19640;50.944;5.260;2022-07-29T04:16:46;3.75;;;3.25;;
33268;SDS011;19640;50.944;5.260;2022-07-29T04:19:11;4.57;;;3.80;;
33268;SDS011;19640;50.944;5.260;2022-07-29T04:21:38;4.35;;;3.95;;
33268;SDS011;19640;50.944;5.260;2022-07-29T04:24:04;4.40;;;3.80;;
33268;SDS011;19640;50.944;5.260;2022-07-29T04:26:30;6.30;;;3.90;;
33268;SDS011;19640;50.944;5.260;2022-07-29T04:28:56;6.88;;;4.70;;
33268;SDS011;19640;50.944;5.260;2022-07-29T04:31:22;6.15;;;4.40;;
33268;SDS011;19640;50.944;5.260;2022-07-29T04:33:47;5.95;;;4.88;;
33268;SDS011;19640;50.944;5.260;2022-07-29T04:36:13;10.77;;;5.63;;
33268;SDS011;19640;50.944;5.260;2022-07-29T04:38:38;9.18;;;4.80;;
33268;SDS011;19640;50.944;5.260;2022-07-29T04:41:05;6.15;;;5.43;;
33268;SDS011;19640;50.944;5.260;2022-07-29T04:43:32;7.35;;;5.20;;
33268;SDS011;19640;50.944;5.260;2022-07-29T04:45:58;6.82;;;5.10;;
33268;SDS011;19640;50.944;5.260;2022-07-29T04:48:24;6.32;;;5.30;;
33268;SDS011;19640;50.944;5.260;2022-07-29T04:50:50;6.65;;;5.40;;
33268;SDS011;19640;50.944;5.260;2022-07-29T04:53:16;5.40;;;4.97;;
33268;SDS011;19640;50.944;5.260;2022-07-29T04:55:41;7.22;;;5.80;;
33268;SDS011;19640;50.944;5.260;2022-07-29T04:58:07;9.23;;;5.78;;
33268;SDS011;19640;50.944;5.260;2022-07-29T05:00:33;12.35;;;5.07;;
33268;SDS011;19640;50.944;5.260;2022-07-29T05:02:59;6.57;;;4.80;;
33268;SDS011;19640;50.944;5.260;2022-07-29T05:05:25;7.55;;;4.68;;
33268;SDS011;19640;50.944;5.260;2022-07-29T05:07:50;5.72;;;5.10;;
33268;SDS011;19640;50.944;5.260;2022-07-29T05:10:16;5.25;;;4.68;;
33268;SDS011;19640;50.944;5.260;2022-07-29T05:12:41;6.20;;;5.32;;
33268;SDS011;19640;50.944;5.260;2022-07-29T05:15:07;5.28;;;4.82;;
33268;SDS011;19640;50.944;5.260;2022-07-29T05:17:33;9.57;;;5.78;;
33268;SDS011;19640;50.944;5.260;2022-07-29T05:19:59;7.53;;;5.93;;
33268;SDS011;19640;50.944;5.260;2022-07-29T05:22:25;11.57;;;5.80;;
33268;SDS011;19640;50.944;5.260;2022-07-29T05:24:51;5.97;;;5.43;;
33268;SDS011;19640;50.944;5.260;2022-07-29T05:27:16;6.65;;;6.07;;
33268;SDS011;19640;50.944;5.260;2022-07-29T05:29:42;7.15;;;5.82;;
33268;SDS011;19640;50.944;5.260;2022-07-29T05:32:07;10.20;;;6.30;;
33268;SDS011;19640;50.944;5.260;2022-07-29T05:34:33;7.07;;;6.38;;
33268;SDS011;19640;50.944;5.260;2022-07-29T05:36:59;8.73;;;5.70;;
33268;SDS011;19640;50.944;5.260;2022-07-29T05:39:25;5.57;;;5.07;;
33268;SDS011;19640;50.944;5.260;2022-07-29T05:41:50;7.25;;;5.82;;
33268;SDS011;19640;50.944;5.260;2022-07-29T05:44:16;6.88;;;4.88;;
33268;SDS011;19640;50.944;5.260;2022-07-29T05:46:42;7.03;;;5.35;;
33268;SDS011;19640;50.944;5.260;2022-07-29T05:49:08;5.68;;;5.05;;
33268;SDS011;19640;50.944;5.260;2022-07-29T05:51:34;8.88;;;5.63;;
33268;SDS011;19640;50.944;5.260;2022-07-29T05:54:00;7.72;;;5.40;;
33268;SDS011;19640;50.944;5.260;2022-07-29T05:56:25;6.85;;;6.15;;
33268;SDS011;19640;50.944;5.260;2022-07-29T05:58:51;7.63;;;5.68;;
33268;SDS011;19640;50.944;5.260;2022-07-29T06:01:17;6.57;;;5.63;;
33268;SDS011;19640;50.944;5.260;2022-07-29T06:03:43;8.60;;;5.88;;
33268;SDS011;19640;50.944;5.260;2022-07-29T06:06:09;7.55;;;5.55;;
33268;SDS011;19640;50.944;5.260;2022-07-29T06:08:35;6.78;;;5.10;;
33268;SDS011;19640;50.944;5.260;2022-07-29T06:11:01;8.43;;;6.10;;
33268;SDS011;19640;50.944;5.260;2022-07-29T06:13:27;6.00;;;5.28;;
33268;SDS011;19640;50.944;5.260;2022-07-29T06:15:52;6.00;;;5.35;;
33268;SDS011;19640;50.944;5.260;2022-07-29T06:18:18;10.13;;;5.97;;
33268;SDS011;19640;50.944;5.260;2022-07-29T06:20:45;6.03;;;4.82;;
33268;SDS011;19640;50.944;5.260;2022-07-29T06:23:11;5.75;;;5.18;;
33268;SDS011;19640;50.944;5.260;2022-07-29T06:25:37;7.70;;;4.72;;
33268;SDS011;19640;50.944;5.260;2022-07-29T06:28:04;5.75;;;5.22;;
33268;SDS011;19640;50.944;5.260;2022-07-29T06:30:30;6.32;;;4.85;;
33268;SDS011;19640;50.944;5.260;2022-07-29T06:32:55;10.73;;;6.40;;
33268;SDS011;19640;50.944;5.260;2022-07-29T06:35:21;6.38;;;5.78;;
33268;SDS011;19640;50.944;5.260;2022-07-29T06:37:47;6.40;;;5.47;;
33268;SDS011;19640;50.944;5.260;2022-07-29T06:40:12;7.55;;;5.70;;
33268;SDS011;19640;50.944;5.260;2022-07-29T06:42:58;7.03;;;4.97;;
33268;SDS011;19640;50.944;5.260;2022-07-29T06:45:24;13.80;;;6.10;;
33268;SDS011;19640;50.944;5.260;2022-07-29T06:47:49;9.70;;;4.63;;
33268;SDS011;19640;50.944;5.260;2022-07-29T06:50:15;5.35;;;4.82;;
33268;SDS011;19640;50.944;5.260;2022-07-29T06:52:41;6.18;;;4.35;;
33268;SDS011;19640;50.944;5.260;2022-07-29T06:55:07;4.32;;;3.35;;
33268;SDS011;19640;50.944;5.260;2022-07-29T06:57:33;4.47;;;3.70;;
33268;SDS011;19640;50.944;5.260;2022-07-29T06:59:59;3.65;;;3.15;;
33268;SDS011;19640;50.944;5.260;2022-07-29T07:02:25;5.32;;;2.85;;
33268;SDS011;19640;50.944;5.260;2022-07-29T07:04:51;5.40;;;2.88;;
33268;SDS011;19640;50.944;5.260;2022-07-29T07:07:17;4.03;;;2.83;;
33268;SDS011;19640;50.944;5.260;2022-07-29T07:09:42;3.95;;;2.80;;
33268;SDS011;19640;50.944;5.260;2022-07-29T07:12:08;2.80;;;2.50;;
33268;SDS011;19640;50.944;5.260;2022-07-29T07:14:34;2.67;;;2.38;;
33268;SDS011;19640;50.944;5.260;2022-07-29T07:17:00;3.40;;;2.17;;
33268;SDS011;19640;50.944;5.260;2022-07-29T07:19:26;5.72;;;2.63;;
33268;SDS011;19640;50.944;5.260;2022-07-29T07:21:54;3.38;;;1.92;;
33268;SDS011;19640;50.944;5.260;2022-07-29T07:24:20;5.25;;;2.28;;
33268;SDS011;19640;50.944;5.260;2022-07-29T07:26:46;7.60;;;2.58;;
33268;SDS011;19640;50.944;5.260;2022-07-29T07:29:11;3.10;;;2.38;;
33268;SDS011;19640;50.944;5.260;2022-07-29T07:31:38;3.88;;;2.15;;
33268;SDS011;19640;50.944;5.260;2022-07-29T07:34:03;3.28;;;2.47;;
33268;SDS011;19640;50.944;5.260;2022-07-29T07:36:29;3.40;;;2.13;;
33268;SDS011;19640;50.944;5.260;2022-07-29T07:38:55;3.05;;;2.15;;
33268;SDS011;19640;50.944;5.260;2022-07-29T07:41:21;10.10;;;4.07;;
33268;SDS011;19640;50.944;5.260;2022-07-29T07:43:46;3.40;;;2.30;;
33268;SDS011;19640;50.944;5.260;2022-07-29T07:46:12;4.15;;;2.55;;
33268;SDS011;19640;50.944;5.260;2022-07-29T07:48:38;4.50;;;2.60;;
33268;SDS011;19640;50.944;5.260;2022-07-29T07:51:03;3.03;;;2.40;;
33268;SDS011;19640;50.944;5.260;2022-07-29T07:53:29;5.65;;;2.60;;
33268;SDS011;19640;50.944;5.260;2022-07-29T07:55:55;3.72;;;2.22;;
33268;SDS011;19640;50.944;5.260;2022-07-29T07:58:21;4.28;;;2.40;;
33268;SDS011;19640;50.944;5.260;2022-07-29T08:00:46;3.08;;;2.00;;
33268;SDS011;19640;50.944;5.260;2022-07-29T08:03:12;2.75;;;2.05;;
33268;SDS011;19640;50.944;5.260;2022-07-29T08:05:39;5.15;;;2.10;;
33268;SDS011;19640;50.944;5.260;2022-07-29T08:08:05;3.53;;;2.00;;
33268;SDS011;19640;50.944;5.260;2022-07-29T08:10:32;4.47;;;2.65;;
33268;SDS011;19640;50.944;5.260;2022-07-29T08:13:16;4.05;;;2.38;;
33268;SDS011;19640;50.944;5.260;2022-07-29T08:15:42;2.40;;;1.95;;
33268;SDS011;19640;50.944;5.260;2022-07-29T08:18:10;4.53;;;2.22;;
33268;SDS011;19640;50.944;5.260;2022-07-29T08:20:36;3.22;;;2.25;;
33268;SDS011;19640;50.944;5.260;2022-07-29T08:23:03;3.33;;;2.22;;
33268;SDS011;19640;50.944;5.260;2022-07-29T08:25:31;3.47;;;2.50;;
33268;SDS011;19640;50.944;5.260;2022-07-29T08:28:04;5.03;;;2.42;;
33268;SDS011;19640;50.944;5.260;2022-07-29T08:30:30;3.90;;;1.80;;
33268;SDS011;19640;50.944;5.260;2022-07-29T08:32:57;3.92;;;2.28;;
33268;SDS011;19640;50.944;5.260;2022-07-29T08:35:23;8.98;;;2.65;;
33268;SDS011;19640;50.944;5.260;2022-07-29T08:37:50;5.00;;;2.78;;
33268;SDS011;19640;50.944;5.260;2022-07-29T08:40:16;3.00;;;2.35;;
33268;SDS011;19640;50.944;5.260;2022-07-29T08:42:42;2.75;;;2.30;;
33268;SDS011;19640;50.944;5.260;2022-07-29T08:45:08;4.72;;;2.60;;
33268;SDS011;19640;50.944;5.260;2022-07-29T08:47:34;4.32;;;2.30;;
33268;SDS011;19640;50.944;5.260;2022-07-29T08:50:04;4.47;;;2.63;;
33268;SDS011;19640;50.944;5.260;2022-07-29T08:52:31;4.72;;;2.53;;
33268;SDS011;19640;50.944;5.260;2022-07-29T08:55:01;4.25;;;2.90;;
33268;SDS011;19640;50.944;5.260;2022-07-29T08:57:27;4.93;;;2.67;;
33268;SDS011;19640;50.944;5.260;2022-07-29T08:59:53;3.78;;;2.60;;
33268;SDS011;19640;50.944;5.260;2022-07-29T09:02:20;5.13;;;2.63;;
33268;SDS011;19640;50.944;5.260;2022-07-29T09:04:46;4.78;;;2.75;;
33268;SDS011;19640;50.944;5.260;2022-07-29T09:07:16;2.85;;;2.60;;
33268;SDS011;19640;50.944;5.260;2022-07-29T09:09:43;4.43;;;2.47;;
33268;SDS011;19640;50.944;5.260;2022-07-29T09:12:09;9.50;;;2.45;;
33268;SDS011;19640;50.944;5.260;2022-07-29T09:14:39;3.20;;;2.90;;
33268;SDS011;19640;50.944;5.260;2022-07-29T09:17:05;6.45;;;3.13;;
33268;SDS011;19640;50.944;5.260;2022-07-29T09:19:37;5.82;;;3.00;;
33268;SDS011;19640;50.944;5.260;2022-07-29T09:22:04;3.07;;;2.50;;
33268;SDS011;19640;50.944;5.260;2022-07-29T09:27:18;2.55;;;2.05;;
33268;SDS011;19640;50.944;5.260;2022-07-29T09:29:46;3.45;;;2.47;;
33268;SDS011;19640;50.944;5.260;2022-07-29T09:32:19;2.78;;;1.70;;
33268;SDS011;19640;50.944;5.260;2022-07-29T09:34:45;2.85;;;2.10;;
33268;SDS011;19640;50.944;5.260;2022-07-29T09:37:10;5.20;;;2.22;;
33268;SDS011;19640;50.944;5.260;2022-07-29T09:39:37;5.50;;;2.55;;
33268;SDS011;19640;50.944;5.260;2022-07-29T09:42:10;2.45;;;1.83;;
33268;SDS011;19640;50.944;5.260;2022-07-29T09:44:44;3.00;;;2.28;;
33268;SDS011;19640;50.944;5.260;2022-07-29T09:47:14;3.30;;;2.10;;
33268;SDS011;19640;50.944;5.260;2022-07-29T09:49:51;3.63;;;1.70;;
33268;SDS011;19640;50.944;5.260;2022-07-29T09:52:19;4.00;;;1.90;;
33268;SDS011;19640;50.944;5.260;2022-07-29T09:54:45;2.70;;;1.67;;
33268;SDS011;19640;50.944;5.260;2022-07-29T09:57:24;6.22;;;1.77;;
33268;SDS011;19640;50.944;5.260;2022-07-29T10:02:30;5.38;;;1.80;;
33268;SDS011;19640;50.944;5.260;2022-07-29T10:04:58;3.63;;;1.92;;
33268;SDS011;19640;50.944;5.260;2022-07-29T10:07:25;2.35;;;1.80;;
33268;SDS011;19640;50.944;5.260;2022-07-29T10:09:55;3.72;;;2.10;;
33268;SDS011;19640;50.944;5.260;2022-07-29T10:12:21;2.88;;;1.90;;
33268;SDS011;19640;50.944;5.260;2022-07-29T10:14:48;3.53;;;2.67;;
33268;SDS011;19640;50.944;5.260;2022-07-29T10:17:14;4.07;;;2.22;;
33268;SDS011;19640;50.944;5.260;2022-07-29T10:19:41;3.97;;;2.90;;
33268;SDS011;19640;50.944;5.260;2022-07-29T10:22:08;2.75;;;2.45;;
33268;SDS011;19640;50.944;5.260;2022-07-29T10:24:35;2.50;;;2.20;;
33268;SDS011;19640;50.944;5.260;2022-07-29T10:27:03;4.60;;;1.95;;
33268;SDS011;19640;50.944;5.260;2022-07-29T10:29:31;3.45;;;2.13;;
33268;SDS011;19640;50.944;5.260;2022-07-29T10:43:17;4.53;;;2.17;;
33268;SDS011;19640;50.944;5.260;2022-07-29T10:45:48;2.63;;;1.90;;
33268;SDS011;19640;50.944;5.260;2022-07-29T10:48:14;3.17;;;2.10;;
33268;SDS011;19640;50.944;5.260;2022-07-29T10:50:56;4.72;;;2.78;;
33268;SDS011;19640;50.944;5.260;2022-07-29T10:56:26;3.70;;;2.30;;
33268;SDS011;19640;50.944;5.260;2022-07-29T11:01:48;3.03;;;1.85;;
33268;SDS011;19640;50.944;5.260;2022-07-29T11:04:15;2.83;;;2.28;;
33268;SDS011;19640;50.944;5.260;2022-07-29T11:09:25;2.67;;;1.70;;
33268;SDS011;19640;50.944;5.260;2022-07-29T11:11:51;3.30;;;1.98;;
33268;SDS011;19640;50.944;5.260;2022-07-29T11:14:18;2.58;;;2.00;;
33268;SDS011;19640;50.944;5.260;2022-07-29T11:17:04;2.97;;;1.88;;
33268;SDS011;19640;50.944;5.260;2022-07-29T11:19:31;4.82;;;1.85;;
33268;SDS011;19640;50.944;5.260;2022-07-29T11:21:57;3.67;;;1.83;;
33268;SDS011;19640;50.944;5.260;2022-07-29T11:24:27;2.17;;;1.85;;
33268;SDS011;19640;50.944;5.260;2022-07-29T11:27:15;3.30;;;1.90;;
33268;SDS011;19640;50.944;5.260;2022-07-29T11:29:47;3.00;;;1.57;;
33268;SDS011;19640;50.944;5.260;2022-07-29T11:32:15;3.42;;;2.08;;
33268;SDS011;19640;50.944;5.260;2022-07-29T11:34:44;3.35;;;1.40;;
33268;SDS011;19640;50.944;5.260;2022-07-29T11:39:44;2.47;;;1.60;;
33268;SDS011;19640;50.944;5.260;2022-07-29T11:47:31;3.30;;;1.50;;
33268;SDS011;19640;50.944;5.260;2022-07-29T11:50:08;2.97;;;1.45;;
33268;SDS011;19640;50.944;5.260;2022-07-29T11:52:39;3.60;;;1.90;;
33268;SDS011;19640;50.944;5.260;2022-07-29T11:55:20;2.70;;;1.50;;
33268;SDS011;19640;50.944;5.260;2022-07-29T11:57:53;4.97;;;2.15;;
33268;SDS011;19640;50.944;5.260;2022-07-29T12:00:28;2.70;;;1.42;;
33268;SDS011;19640;50.944;5.260;2022-07-29T12:02:55;2.75;;;1.48;;
33268;SDS011;19640;50.944;5.260;2022-07-29T12:05:29;2.25;;;1.52;;
33268;SDS011;19640;50.944;5.260;2022-07-29T12:07:58;2.65;;;1.50;;
33268;SDS011;19640;50.944;5.260;2022-07-29T12:10:51;2.80;;;1.20;;
33268;SDS011;19640;50.944;5.260;2022-07-29T12:13:20;1.58;;;1.30;;
33268;SDS011;19640;50.944;5.260;2022-07-29T12:15:55;5.30;;;1.52;;
33268;SDS011;19640;50.944;5.260;2022-07-29T12:18:23;3.42;;;1.75;;
33268;SDS011;19640;50.944;5.260;2022-07-29T12:20:56;4.82;;;1.40;;
33268;SDS011;19640;50.944;5.260;2022-07-29T12:23:23;3.03;;;1.38;;
33268;SDS011;19640;50.944;5.260;2022-07-29T12:25:48;2.70;;;1.27;;
33268;SDS011;19640;50.944;5.260;2022-07-29T12:28:14;1.48;;;1.38;;
33268;SDS011;19640;50.944;5.260;2022-07-29T12:35:56;1.92;;;1.20;;
33268;SDS011;19640;50.944;5.260;2022-07-29T12:38:24;3.47;;;1.55;;
33268;SDS011;19640;50.944;5.260;2022-07-29T12:40:51;2.25;;;1.40;;
33268;SDS011;19640;50.944;5.260;2022-07-29T12:43:22;2.95;;;1.30;;
33268;SDS011;19640;50.944;5.260;2022-07-29T12:45:49;1.67;;;1.30;;
33268;SDS011;19640;50.944;5.260;2022-07-29T12:48:30;3.58;;;1.30;;
33268;SDS011;19640;50.944;5.260;2022-07-29T12:51:02;1.40;;;1.30;;
33268;SDS011;19640;50.944;5.260;2022-07-29T12:53:29;3.38;;;0.98;;
33268;SDS011;19640;50.944;5.260;2022-07-29T12:55:56;3.65;;;1.60;;
33268;SDS011;19640;50.944;5.260;2022-07-29T12:58:32;2.65;;;1.55;;
33268;SDS011;19640;50.944;5.260;2022-07-29T13:01:03;2.38;;;1.33;;
33268;SDS011;19640;50.944;5.260;2022-07-29T13:03:55;4.00;;;1.58;;
33268;SDS011;19640;50.944;5.260;2022-07-29T13:09:02;2.42;;;1.50;;
33268;SDS011;19640;50.944;5.260;2022-07-29T13:11:46;4.40;;;1.45;;
33268;SDS011;19640;50.944;5.260;2022-07-29T13:14:36;4.32;;;1.33;;
33268;SDS011;19640;50.944;5.260;2022-07-29T13:19:47;2.45;;;1.38;;
33268;SDS011;19640;50.944;5.260;2022-07-29T13:22:13;2.30;;;1.30;;
33268;SDS011;19640;50.944;5.260;2022-07-29T13:27:18;2.03;;;1.10;;
33268;SDS011;19640;50.944;5.260;2022-07-29T13:29:45;2.70;;;1.08;;
33268;SDS011;19640;50.944;5.260;2022-07-29T13:32:11;1.30;;;1.20;;
33268;SDS011;19640;50.944;5.260;2022-07-29T13:34:38;2.17;;;0.93;;
33268;SDS011;19640;50.944;5.260;2022-07-29T13:37:04;0.80;;;0.75;;
33268;SDS011;19640;50.944;5.260;2022-07-29T13:39:29;2.47;;;1.00;;
33268;SDS011;19640;50.944;5.260;2022-07-29T13:41:55;5.15;;;1.50;;
33268;SDS011;19640;50.944;5.260;2022-07-29T13:44:21;1.80;;;1.00;;
33268;SDS011;19640;50.944;5.260;2022-07-29T13:46:47;3.85;;;0.98;;
33268;SDS011;19640;50.944;5.260;2022-07-29T13:49:12;2.30;;;1.00;;
33268;SDS011;19640;50.944;5.260;2022-07-29T13:51:38;13.63;;;1.60;;
33268;SDS011;19640;50.944;5.260;2022-07-29T13:54:04;2.75;;;1.20;;
33268;SDS011;19640;50.944;5.260;2022-07-29T13:56:30;1.48;;;1.15;;
33268;SDS011;19640;50.944;5.260;2022-07-29T13:58:55;2.17;;;1.20;;
33268;SDS011;19640;50.944;5.260;2022-07-29T14:01:22;3.85;;;1.20;;
33268;SDS011;19640;50.944;5.260;2022-07-29T14:03:48;3.15;;;1.05;;
33268;SDS011;19640;50.944;5.260;2022-07-29T14:06:13;1.88;;;1.10;;
33268;SDS011;19640;50.944;5.260;2022-07-29T14:08:39;4.22;;;1.65;;
33268;SDS011;19640;50.944;5.260;2022-07-29T14:11:06;4.15;;;1.40;;
33268;SDS011;19640;50.944;5.260;2022-07-29T14:13:31;3.63;;;1.30;;
33268;SDS011;19640;50.944;5.260;2022-07-29T14:15:57;5.07;;;1.33;;
33268;SDS011;19640;50.944;5.260;2022-07-29T14:18:23;2.03;;;1.02;;
33268;SDS011;19640;50.944;5.260;2022-07-29T14:20:48;3.75;;;1.80;;
33268;SDS011;19640;50.944;5.260;2022-07-29T14:23:15;2.50;;;1.20;;
33268;SDS011;19640;50.944;5.260;2022-07-29T14:25:41;3.60;;;1.67;;
33268;SDS011;19640;50.944;5.260;2022-07-29T14:28:06;2.53;;;1.35;;
33268;SDS011;19640;50.944;5.260;2022-07-29T14:30:32;4.88;;;1.30;;
33268;SDS011;19640;50.944;5.260;2022-07-29T14:32:58;2.92;;;1.58;;
33268;SDS011;19640;50.944;5.260;2022-07-29T14:35:23;3.20;;;1.20;;
33268;SDS011;19640;50.944;5.260;2022-07-29T14:37:49;4.45;;;1.33;;
33268;SDS011;19640;50.944;5.260;2022-07-29T14:40:14;3.60;;;1.25;;
33268;SDS011;19640;50.944;5.260;2022-07-29T14:42:40;2.78;;;1.13;;
33268;SDS011;19640;50.944;5.260;2022-07-29T14:45:06;3.70;;;1.23;;
33268;SDS011;19640;50.944;5.260;2022-07-29T14:47:33;3.35;;;1.20;;
33268;SDS011;19640;50.944;5.260;2022-07-29T14:49:59;3.95;;;1.15;;
33268;SDS011;19640;50.944;5.260;2022-07-29T14:52:25;4.30;;;1.27;;
33268;SDS011;19640;50.944;5.260;2022-07-29T14:54:50;1.70;;;0.90;;
33268;SDS011;19640;50.944;5.260;2022-07-29T14:57:16;2.65;;;0.90;;
33268;SDS011;19640;50.944;5.260;2022-07-29T14:59:42;3.42;;;1.00;;
33268;SDS011;19640;50.944;5.260;2022-07-29T15:02:07;1.95;;;1.20;;
33268;SDS011;19640;50.944;5.260;2022-07-29T15:04:33;2.35;;;0.95;;
33268;SDS011;19640;50.944;5.260;2022-07-29T15:06:59;2.90;;;1.00;;
33268;SDS011;19640;50.944;5.260;2022-07-29T15:09:25;1.83;;;1.00;;
33268;SDS011;19640;50.944;5.260;2022-07-29T15:11:50;2.75;;;1.00;;
33268;SDS011;19640;50.944;5.260;2022-07-29T15:14:16;4.75;;;1.55;;
33268;SDS011;19640;50.944;5.260;2022-07-29T15:16:42;2.05;;;1.75;;
33268;SDS011;19640;50.944;5.260;2022-07-29T15:19:08;3.53;;;1.15;;
33268;SDS011;19640;50.944;5.260;2022-07-29T15:21:34;4.43;;;1.35;;
33268;SDS011;19640;50.944;5.260;2022-07-29T15:24:00;3.83;;;1.42;;
33268;SDS011;19640;50.944;5.260;2022-07-29T15:26:25;2.00;;;1.00;;
33268;SDS011;19640;50.944;5.260;2022-07-29T15:28:51;4.32;;;1.10;;
33268;SDS011;19640;50.944;5.260;2022-07-29T15:31:17;3.10;;;1.30;;
33268;SDS011;19640;50.944;5.260;2022-07-29T15:33:43;3.47;;;1.45;;
33268;SDS011;19640;50.944;5.260;2022-07-29T15:36:09;4.13;;;1.15;;
33268;SDS011;19640;50.944;5.260;2022-07-29T15:38:37;2.33;;;1.30;;
33268;SDS011;19640;50.944;5.260;2022-07-29T15:41:04;4.35;;;1.33;;
33268;SDS011;19640;50.944;5.260;2022-07-29T15:43:30;2.97;;;1.38;;
33268;SDS011;19640;50.944;5.260;2022-07-29T15:45:55;6.20;;;1.30;;
33268;SDS011;19640;50.944;5.260;2022-07-29T15:48:39;1.75;;;1.20;;
33268;SDS011;19640;50.944;5.260;2022-07-29T15:51:05;2.35;;;1.23;;
33268;SDS011;19640;50.944;5.260;2022-07-29T15:53:31;4.63;;;1.10;;
33268;SDS011;19640;50.944;5.260;2022-07-29T15:55:56;2.90;;;1.00;;
33268;SDS011;19640;50.944;5.260;2022-07-29T15:58:22;3.15;;;1.10;;
33268;SDS011;19640;50.944;5.260;2022-07-29T16:00:48;4.05;;;1.30;;
33268;SDS011;19640;50.944;5.260;2022-07-29T16:03:13;2.55;;;1.20;;